sensor_id;sensor_type;location;lat;lon;timestamp;P1;durP1;ratioP1;P2;durP2;ratioP2
4634;SDS011;2330;48.158;11.816;2023-03-01T00:01:11;16.63;;;15.23;;
4634;SDS011;2330;48.158;11.816;2023-03-01T00:03:39;14.63;;;13.43;;
4634;SDS011;2330;48.158;11.816;2023-03-01T00:06:06;15.40;;;13.90;;
4634;SDS011;2330;48.158;11.816;2023-03-01T00:08:33;14.18;;;12.90;;
4634;SDS011;2330;48.158;11.816;2023-03-01T00:11:08;15.20;;;14.00;;
4634;SDS011;2330;48.158;11.816;2023-03-01T00:13:39;15.93;;;14.43;;
4634;SDS011;2330;48.158;11.816;2023-03-01T00:16:07;15.52;;;14.20;;
4634;SDS011;2330;48.158;11.816;2023-03-01T00:18:35;15.48;;;14.07;;
4634;SDS011;2330;48.158;11.816;2023-03-01T00:21:02;15.70;;;14.40;;
4634;SDS011;2330;48.158;11.816;2023-03-01T00:23:29;16.30;;;14.90;;
4634;SDS011;2330;48.158;11.816;2023-03-01T00:25:55;15.23;;;13.95;;
4634;SDS011;2330;48.158;11.816;2023-03-01T00:28:22;14.65;;;13.32;;
4634;SDS011;2330;48.158;11.816;2023-03-01T00:30:49;16.13;;;14.82;;
4634;SDS011;2330;48.158;11.816;2023-03-01T00:33:16;15.02;;;13.73;;
4634;SDS011;2330;48.158;11.816;2023-03-01T00:35:43;15.93;;;14.63;;
4634;SDS011;2330;48.158;11.816;2023-03-01T00:38:09;15.07;;;13.77;;
4634;SDS011;2330;48.158;11.816;2023-03-01T00:40:36;14.70;;;13.40;;
4634;SDS011;2330;48.158;11.816;2023-03-01T00:43:03;13.60;;;12.45;;
4634;SDS011;2330;48.158;11.816;2023-03-01T00:45:30;15.82;;;14.52;;
4634;SDS011;2330;48.158;11.816;2023-03-01T00:47:57;15.55;;;14.10;;
4634;SDS011;2330;48.158;11.816;2023-03-01T00:50:24;15.27;;;13.98;;
4634;SDS011;2330;48.158;11.816;2023-03-01T00:52:55;15.15;;;13.90;;
4634;SDS011;2330;48.158;11.816;2023-03-01T00:55:22;15.10;;;13.88;;
4634;SDS011;2330;48.158;11.816;2023-03-01T00:57:49;15.80;;;14.30;;
4634;SDS011;2330;48.158;11.816;2023-03-01T01:00:16;15.70;;;14.40;;
4634;SDS011;2330;48.158;11.816;2023-03-01T01:02:43;15.70;;;14.40;;
4634;SDS011;2330;48.158;11.816;2023-03-01T01:05:12;15.75;;;14.32;;
4634;SDS011;2330;48.158;11.816;2023-03-01T01:07:39;15.90;;;14.52;;
4634;SDS011;2330;48.158;11.816;2023-03-01T01:10:06;15.00;;;13.80;;
4634;SDS011;2330;48.158;11.816;2023-03-01T01:12:34;15.48;;;14.10;;
4634;SDS011;2330;48.158;11.816;2023-03-01T01:15:00;15.82;;;14.43;;
4634;SDS011;2330;48.158;11.816;2023-03-01T01:17:28;14.98;;;13.48;;
4634;SDS011;2330;48.158;11.816;2023-03-01T01:19:54;17.17;;;15.50;;
4634;SDS011;2330;48.158;11.816;2023-03-01T01:22:21;16.15;;;14.75;;
4634;SDS011;2330;48.158;11.816;2023-03-01T01:24:48;15.13;;;13.73;;
4634;SDS011;2330;48.158;11.816;2023-03-01T01:27:14;15.35;;;14.10;;
4634;SDS011;2330;48.158;11.816;2023-03-01T01:29:41;16.50;;;15.15;;
4634;SDS011;2330;48.158;11.816;2023-03-01T01:32:08;15.25;;;13.90;;
4634;SDS011;2330;48.158;11.816;2023-03-01T01:34:35;14.52;;;13.32;;
4634;SDS011;2330;48.158;11.816;2023-03-01T01:37:02;16.05;;;14.75;;
4634;SDS011;2330;48.158;11.816;2023-03-01T01:39:29;15.10;;;13.77;;
4634;SDS011;2330;48.158;11.816;2023-03-01T01:41:55;16.95;;;15.48;;
4634;SDS011;2330;48.158;11.816;2023-03-01T01:44:23;15.50;;;13.95;;
4634;SDS011;2330;48.158;11.816;2023-03-01T01:52:07;16.08;;;14.75;;
4634;SDS011;2330;48.158;11.816;2023-03-01T01:57:27;15.93;;;14.60;;
4634;SDS011;2330;48.158;11.816;2023-03-01T02:00:03;16.02;;;14.63;;
4634;SDS011;2330;48.158;11.816;2023-03-01T02:05:14;15.85;;;14.55;;
4634;SDS011;2330;48.158;11.816;2023-03-01T02:08:01;15.57;;;14.27;;
4634;SDS011;2330;48.158;11.816;2023-03-01T02:10:28;15.10;;;13.95;;
4634;SDS011;2330;48.158;11.816;2023-03-01T02:12:56;17.33;;;15.75;;
4634;SDS011;2330;48.158;11.816;2023-03-01T02:15:23;17.30;;;15.25;;
4634;SDS011;2330;48.158;11.816;2023-03-01T02:17:53;15.73;;;14.38;;
4634;SDS011;2330;48.158;11.816;2023-03-01T02:22:53;15.35;;;14.05;;
4634;SDS011;2330;48.158;11.816;2023-03-01T02:30:46;16.70;;;15.25;;
4634;SDS011;2330;48.158;11.816;2023-03-01T02:33:34;15.13;;;13.80;;
4634;SDS011;2330;48.158;11.816;2023-03-01T02:36:05;16.08;;;14.68;;
4634;SDS011;2330;48.158;11.816;2023-03-01T02:38:35;16.05;;;14.48;;
4634;SDS011;2330;48.158;11.816;2023-03-01T02:41:02;16.75;;;15.25;;
4634;SDS011;2330;48.158;11.816;2023-03-01T02:43:32;16.25;;;14.60;;
4634;SDS011;2330;48.158;11.816;2023-03-01T02:46:05;16.23;;;14.93;;
4634;SDS011;2330;48.158;11.816;2023-03-01T02:48:40;17.23;;;15.00;;
4634;SDS011;2330;48.158;11.816;2023-03-01T02:56:56;16.35;;;14.77;;
4634;SDS011;2330;48.158;11.816;2023-03-01T02:59:24;15.57;;;14.27;;
4634;SDS011;2330;48.158;11.816;2023-03-01T03:01:55;15.63;;;14.32;;
4634;SDS011;2330;48.158;11.816;2023-03-01T03:04:22;16.30;;;14.80;;
4634;SDS011;2330;48.158;11.816;2023-03-01T03:06:50;16.27;;;14.98;;
4634;SDS011;2330;48.158;11.816;2023-03-01T03:09:17;15.32;;;14.02;;
4634;SDS011;2330;48.158;11.816;2023-03-01T03:11:44;15.73;;;14.45;;
4634;SDS011;2330;48.158;11.816;2023-03-01T03:14:11;15.18;;;13.85;;
4634;SDS011;2330;48.158;11.816;2023-03-01T03:16:41;16.00;;;14.60;;
4634;SDS011;2330;48.158;11.816;2023-03-01T03:19:09;15.52;;;14.13;;
4634;SDS011;2330;48.158;11.816;2023-03-01T03:21:36;16.48;;;14.98;;
4634;SDS011;2330;48.158;11.816;2023-03-01T03:24:03;16.52;;;15.02;;
4634;SDS011;2330;48.158;11.816;2023-03-01T03:26:31;15.57;;;14.27;;
4634;SDS011;2330;48.158;11.816;2023-03-01T03:28:58;14.93;;;13.68;;
4634;SDS011;2330;48.158;11.816;2023-03-01T03:31:25;15.63;;;14.23;;
4634;SDS011;2330;48.158;11.816;2023-03-01T03:33:52;16.25;;;14.82;;
4634;SDS011;2330;48.158;11.816;2023-03-01T03:36:21;16.40;;;14.90;;
4634;SDS011;2330;48.158;11.816;2023-03-01T03:38:49;16.02;;;14.50;;
4634;SDS011;2330;48.158;11.816;2023-03-01T03:41:17;15.98;;;14.57;;
4634;SDS011;2330;48.158;11.816;2023-03-01T03:43:44;15.15;;;13.85;;
4634;SDS011;2330;48.158;11.816;2023-03-01T03:46:11;15.73;;;14.43;;
4634;SDS011;2330;48.158;11.816;2023-03-01T03:48:41;17.23;;;15.82;;
4634;SDS011;2330;48.158;11.816;2023-03-01T03:51:12;16.10;;;14.70;;
4634;SDS011;2330;48.158;11.816;2023-03-01T03:53:40;16.80;;;15.20;;
4634;SDS011;2330;48.158;11.816;2023-03-01T03:56:07;15.05;;;13.85;;
4634;SDS011;2330;48.158;11.816;2023-03-01T03:58:34;16.10;;;14.75;;
4634;SDS011;2330;48.158;11.816;2023-03-01T04:01:02;15.63;;;14.32;;
4634;SDS011;2330;48.158;11.816;2023-03-01T04:03:29;15.98;;;14.70;;
4634;SDS011;2330;48.158;11.816;2023-03-01T04:05:58;17.05;;;15.38;;
4634;SDS011;2330;48.158;11.816;2023-03-01T04:08:26;16.08;;;14.68;;
4634;SDS011;2330;48.158;11.816;2023-03-01T04:10:58;17.33;;;15.93;;
4634;SDS011;2330;48.158;11.816;2023-03-01T04:13:46;16.50;;;14.90;;
4634;SDS011;2330;48.158;11.816;2023-03-01T04:16:13;16.58;;;15.25;;
4634;SDS011;2330;48.158;11.816;2023-03-01T04:18:40;15.82;;;14.30;;
4634;SDS011;2330;48.158;11.816;2023-03-01T04:21:06;15.68;;;14.27;;
4634;SDS011;2330;48.158;11.816;2023-03-01T04:23:33;16.60;;;15.20;;
4634;SDS011;2330;48.158;11.816;2023-03-01T04:26:01;16.63;;;15.13;;
4634;SDS011;2330;48.158;11.816;2023-03-01T04:28:29;16.20;;;14.80;;
4634;SDS011;2330;48.158;11.816;2023-03-01T04:31:05;16.55;;;15.07;;
4634;SDS011;2330;48.158;11.816;2023-03-01T04:33:40;15.80;;;14.50;;
4634;SDS011;2330;48.158;11.816;2023-03-01T04:36:15;17.33;;;15.70;;
4634;SDS011;2330;48.158;11.816;2023-03-01T04:38:43;14.80;;;13.60;;
4634;SDS011;2330;48.158;11.816;2023-03-01T04:41:17;16.42;;;15.13;;
4634;SDS011;2330;48.158;11.816;2023-03-01T04:43:46;16.63;;;14.95;;
4634;SDS011;2330;48.158;11.816;2023-03-01T04:46:15;16.13;;;14.80;;
4634;SDS011;2330;48.158;11.816;2023-03-01T04:48:45;16.13;;;14.82;;
4634;SDS011;2330;48.158;11.816;2023-03-01T04:51:13;15.75;;;14.45;;
4634;SDS011;2330;48.158;11.816;2023-03-01T04:53:41;16.23;;;14.70;;
4634;SDS011;2330;48.158;11.816;2023-03-01T04:56:08;16.42;;;14.95;;
4634;SDS011;2330;48.158;11.816;2023-03-01T04:58:35;16.05;;;14.75;;
4634;SDS011;2330;48.158;11.816;2023-03-01T05:01:07;15.73;;;14.35;;
4634;SDS011;2330;48.158;11.816;2023-03-01T05:03:45;17.08;;;15.57;;
4634;SDS011;2330;48.158;11.816;2023-03-01T05:06:14;14.18;;;13.07;;
4634;SDS011;2330;48.158;11.816;2023-03-01T05:08:42;16.58;;;15.07;;
4634;SDS011;2330;48.158;11.816;2023-03-01T05:11:09;16.45;;;15.15;;
4634;SDS011;2330;48.158;11.816;2023-03-01T05:13:38;15.48;;;14.23;;
4634;SDS011;2330;48.158;11.816;2023-03-01T05:16:05;17.17;;;15.57;;
4634;SDS011;2330;48.158;11.816;2023-03-01T05:18:38;17.45;;;16.05;;
4634;SDS011;2330;48.158;11.816;2023-03-01T05:21:07;18.33;;;15.52;;
4634;SDS011;2330;48.158;11.816;2023-03-01T05:23:36;17.95;;;16.55;;
4634;SDS011;2330;48.158;11.816;2023-03-01T05:26:04;17.20;;;15.73;;
4634;SDS011;2330;48.158;11.816;2023-03-01T05:28:36;17.35;;;16.00;;
4634;SDS011;2330;48.158;11.816;2023-03-01T05:31:04;17.00;;;15.60;;
4634;SDS011;2330;48.158;11.816;2023-03-01T05:33:39;16.42;;;15.02;;
4634;SDS011;2330;48.158;11.816;2023-03-01T05:36:07;17.35;;;15.85;;
4634;SDS011;2330;48.158;11.816;2023-03-01T05:38:35;17.63;;;15.85;;
4634;SDS011;2330;48.158;11.816;2023-03-01T05:41:02;17.40;;;15.82;;
4634;SDS011;2330;48.158;11.816;2023-03-01T05:43:30;16.52;;;15.10;;
4634;SDS011;2330;48.158;11.816;2023-03-01T05:46:00;17.48;;;15.88;;
4634;SDS011;2330;48.158;11.816;2023-03-01T05:48:26;16.52;;;15.00;;
4634;SDS011;2330;48.158;11.816;2023-03-01T05:50:53;16.40;;;15.00;;
4634;SDS011;2330;48.158;11.816;2023-03-01T05:53:20;17.60;;;15.80;;
4634;SDS011;2330;48.158;11.816;2023-03-01T05:55:47;17.80;;;16.10;;
4634;SDS011;2330;48.158;11.816;2023-03-01T05:58:17;17.20;;;15.60;;
4634;SDS011;2330;48.158;11.816;2023-03-01T06:00:46;17.10;;;15.60;;
4634;SDS011;2330;48.158;11.816;2023-03-01T06:03:14;17.23;;;15.80;;
4634;SDS011;2330;48.158;11.816;2023-03-01T06:05:42;18.17;;;16.50;;
4634;SDS011;2330;48.158;11.816;2023-03-01T06:08:10;17.30;;;15.65;;
4634;SDS011;2330;48.158;11.816;2023-03-01T06:10:37;17.55;;;15.88;;
4634;SDS011;2330;48.158;11.816;2023-03-01T06:13:04;17.30;;;15.63;;
4634;SDS011;2330;48.158;11.816;2023-03-01T06:15:31;16.38;;;15.05;;
4634;SDS011;2330;48.158;11.816;2023-03-01T06:17:58;17.15;;;15.60;;
4634;SDS011;2330;48.158;11.816;2023-03-01T06:20:27;16.83;;;15.32;;
4634;SDS011;2330;48.158;11.816;2023-03-01T06:22:55;16.15;;;14.85;;
4634;SDS011;2330;48.158;11.816;2023-03-01T06:25:23;19.17;;;17.50;;
4634;SDS011;2330;48.158;11.816;2023-03-01T06:27:52;20.70;;;18.85;;
4634;SDS011;2330;48.158;11.816;2023-03-01T06:30:20;18.23;;;16.60;;
4634;SDS011;2330;48.158;11.816;2023-03-01T06:32:49;17.20;;;15.73;;
4634;SDS011;2330;48.158;11.816;2023-03-01T06:35:17;19.13;;;17.35;;
4634;SDS011;2330;48.158;11.816;2023-03-01T06:37:45;18.98;;;17.30;;
4634;SDS011;2330;48.158;11.816;2023-03-01T06:40:14;18.25;;;16.35;;
4634;SDS011;2330;48.158;11.816;2023-03-01T06:42:42;18.02;;;16.60;;
4634;SDS011;2330;48.158;11.816;2023-03-01T06:45:10;20.05;;;18.17;;
4634;SDS011;2330;48.158;11.816;2023-03-01T06:47:37;19.50;;;17.65;;
4634;SDS011;2330;48.158;11.816;2023-03-01T06:50:04;20.42;;;18.52;;
4634;SDS011;2330;48.158;11.816;2023-03-01T06:52:32;18.05;;;16.48;;
4634;SDS011;2330;48.158;11.816;2023-03-01T06:54:59;19.98;;;18.20;;
4634;SDS011;2330;48.158;11.816;2023-03-01T06:57:26;19.35;;;17.45;;
4634;SDS011;2330;48.158;11.816;2023-03-01T06:59:53;18.15;;;16.55;;
4634;SDS011;2330;48.158;11.816;2023-03-01T07:02:20;20.33;;;16.25;;
4634;SDS011;2330;48.158;11.816;2023-03-01T07:04:48;18.80;;;17.10;;
4634;SDS011;2330;48.158;11.816;2023-03-01T07:07:18;18.88;;;17.17;;
4634;SDS011;2330;48.158;11.816;2023-03-01T07:09:45;19.45;;;17.55;;
4634;SDS011;2330;48.158;11.816;2023-03-01T07:12:12;19.05;;;17.25;;
4634;SDS011;2330;48.158;11.816;2023-03-01T07:14:39;18.42;;;16.83;;
4634;SDS011;2330;48.158;11.816;2023-03-01T07:17:06;19.02;;;17.27;;
4634;SDS011;2330;48.158;11.816;2023-03-01T07:19:33;18.25;;;16.52;;
4634;SDS011;2330;48.158;11.816;2023-03-01T07:22:00;18.25;;;16.67;;
4634;SDS011;2330;48.158;11.816;2023-03-01T07:24:27;18.27;;;16.45;;
4634;SDS011;2330;48.158;11.816;2023-03-01T07:26:54;18.30;;;16.70;;
4634;SDS011;2330;48.158;11.816;2023-03-01T07:29:21;18.95;;;17.35;;
4634;SDS011;2330;48.158;11.816;2023-03-01T07:31:47;18.48;;;16.30;;
4634;SDS011;2330;48.158;11.816;2023-03-01T07:34:14;17.38;;;15.98;;
4634;SDS011;2330;48.158;11.816;2023-03-01T07:36:41;17.85;;;16.30;;
4634;SDS011;2330;48.158;11.816;2023-03-01T07:39:09;18.92;;;17.17;;
4634;SDS011;2330;48.158;11.816;2023-03-01T07:41:37;18.48;;;16.70;;
4634;SDS011;2330;48.158;11.816;2023-03-01T07:44:04;17.00;;;15.60;;
4634;SDS011;2330;48.158;11.816;2023-03-01T07:46:31;20.45;;;18.50;;
4634;SDS011;2330;48.158;11.816;2023-03-01T07:48:58;16.90;;;15.35;;
4634;SDS011;2330;48.158;11.816;2023-03-01T07:51:24;17.92;;;16.35;;
4634;SDS011;2330;48.158;11.816;2023-03-01T07:53:51;17.83;;;16.13;;
4634;SDS011;2330;48.158;11.816;2023-03-01T07:56:18;17.48;;;15.77;;
4634;SDS011;2330;48.158;11.816;2023-03-01T07:58:46;17.75;;;16.00;;
4634;SDS011;2330;48.158;11.816;2023-03-01T08:01:17;18.27;;;16.63;;
4634;SDS011;2330;48.158;11.816;2023-03-01T08:03:45;18.38;;;16.52;;
4634;SDS011;2330;48.158;11.816;2023-03-01T08:06:13;19.10;;;17.40;;
4634;SDS011;2330;48.158;11.816;2023-03-01T08:08:41;17.50;;;15.80;;
4634;SDS011;2330;48.158;11.816;2023-03-01T08:11:10;17.67;;;15.63;;
4634;SDS011;2330;48.158;11.816;2023-03-01T08:13:37;18.35;;;16.60;;
4634;SDS011;2330;48.158;11.816;2023-03-01T08:16:06;18.35;;;16.65;;
4634;SDS011;2330;48.158;11.816;2023-03-01T08:18:36;17.88;;;16.27;;
4634;SDS011;2330;48.158;11.816;2023-03-01T08:21:07;19.00;;;17.30;;
4634;SDS011;2330;48.158;11.816;2023-03-01T08:23:39;17.40;;;15.70;;
4634;SDS011;2330;48.158;11.816;2023-03-01T08:26:11;18.20;;;16.63;;
4634;SDS011;2330;48.158;11.816;2023-03-01T08:28:45;19.38;;;17.42;;
4634;SDS011;2330;48.158;11.816;2023-03-01T08:31:20;19.25;;;17.55;;
4634;SDS011;2330;48.158;11.816;2023-03-01T08:33:47;17.67;;;15.98;;
4634;SDS011;2330;48.158;11.816;2023-03-01T08:36:31;19.10;;;17.33;;
4634;SDS011;2330;48.158;11.816;2023-03-01T08:39:00;18.67;;;16.95;;
4634;SDS011;2330;48.158;11.816;2023-03-01T08:41:27;18.75;;;17.10;;
4634;SDS011;2330;48.158;11.816;2023-03-01T08:43:55;18.50;;;16.73;;
4634;SDS011;2330;48.158;11.816;2023-03-01T08:46:28;19.77;;;17.90;;
4634;SDS011;2330;48.158;11.816;2023-03-01T08:48:57;17.30;;;15.70;;
4634;SDS011;2330;48.158;11.816;2023-03-01T08:51:24;18.27;;;16.58;;
4634;SDS011;2330;48.158;11.816;2023-03-01T08:53:52;19.17;;;17.38;;
4634;SDS011;2330;48.158;11.816;2023-03-01T08:56:19;18.05;;;16.38;;
4634;SDS011;2330;48.158;11.816;2023-03-01T08:58:46;18.70;;;17.00;;
4634;SDS011;2330;48.158;11.816;2023-03-01T09:01:15;17.55;;;15.98;;
4634;SDS011;2330;48.158;11.816;2023-03-01T09:03:44;18.23;;;16.63;;
4634;SDS011;2330;48.158;11.816;2023-03-01T09:06:12;18.20;;;16.50;;
4634;SDS011;2330;48.158;11.816;2023-03-01T09:08:40;18.02;;;16.50;;
4634;SDS011;2330;48.158;11.816;2023-03-01T09:11:09;18.05;;;16.45;;
4634;SDS011;2330;48.158;11.816;2023-03-01T09:13:37;23.02;;;20.92;;
4634;SDS011;2330;48.158;11.816;2023-03-01T09:16:07;18.40;;;16.80;;
4634;SDS011;2330;48.158;11.816;2023-03-01T09:18:34;19.33;;;17.52;;
4634;SDS011;2330;48.158;11.816;2023-03-01T09:21:35;18.67;;;17.17;;
4634;SDS011;2330;48.158;11.816;2023-03-01T09:24:13;20.10;;;18.20;;
4634;SDS011;2330;48.158;11.816;2023-03-01T09:26:41;18.92;;;17.23;;
4634;SDS011;2330;48.158;11.816;2023-03-01T09:29:09;18.92;;;17.00;;
4634;SDS011;2330;48.158;11.816;2023-03-01T09:31:36;18.80;;;17.10;;
4634;SDS011;2330;48.158;11.816;2023-03-01T09:34:03;18.15;;;16.42;;
4634;SDS011;2330;48.158;11.816;2023-03-01T09:36:30;19.15;;;17.35;;
4634;SDS011;2330;48.158;11.816;2023-03-01T09:38:58;18.50;;;17.00;;
4634;SDS011;2330;48.158;11.816;2023-03-01T09:41:30;19.08;;;17.38;;
4634;SDS011;2330;48.158;11.816;2023-03-01T09:44:23;19.73;;;17.65;;
4634;SDS011;2330;48.158;11.816;2023-03-01T09:47:03;19.63;;;17.85;;
4634;SDS011;2330;48.158;11.816;2023-03-01T09:49:31;20.25;;;18.55;;
4634;SDS011;2330;48.158;11.816;2023-03-01T09:52:09;21.50;;;19.70;;
4634;SDS011;2330;48.158;11.816;2023-03-01T09:54:46;19.02;;;17.33;;
4634;SDS011;2330;48.158;11.816;2023-03-01T10:00:03;19.77;;;17.90;;
4634;SDS011;2330;48.158;11.816;2023-03-01T10:02:47;21.30;;;19.40;;
4634;SDS011;2330;48.158;11.816;2023-03-01T10:10:47;21.77;;;19.88;;
4634;SDS011;2330;48.158;11.816;2023-03-01T10:13:17;20.23;;;18.35;;
4634;SDS011;2330;48.158;11.816;2023-03-01T10:15:51;18.95;;;17.40;;
4634;SDS011;2330;48.158;11.816;2023-03-01T10:18:27;20.92;;;19.13;;
4634;SDS011;2330;48.158;11.816;2023-03-01T10:20:57;19.83;;;18.05;;
4634;SDS011;2330;48.158;11.816;2023-03-01T10:23:27;19.23;;;17.50;;
4634;SDS011;2330;48.158;11.816;2023-03-01T10:31:31;19.30;;;17.70;;
4634;SDS011;2330;48.158;11.816;2023-03-01T10:34:21;19.45;;;17.55;;
4634;SDS011;2330;48.158;11.816;2023-03-01T10:36:55;20.00;;;18.08;;
4634;SDS011;2330;48.158;11.816;2023-03-01T10:39:27;18.88;;;17.20;;
4634;SDS011;2330;48.158;11.816;2023-03-01T10:41:58;19.60;;;17.80;;
4634;SDS011;2330;48.158;11.816;2023-03-01T10:52:55;19.83;;;17.85;;
4634;SDS011;2330;48.158;11.816;2023-03-01T10:55:43;19.23;;;17.42;;
4634;SDS011;2330;48.158;11.816;2023-03-01T10:58:20;19.13;;;17.40;;
4634;SDS011;2330;48.158;11.816;2023-03-01T11:00:55;19.08;;;17.42;;
4634;SDS011;2330;48.158;11.816;2023-03-01T11:03:27;18.67;;;16.98;;
4634;SDS011;2330;48.158;11.816;2023-03-01T11:06:01;23.83;;;17.50;;
4634;SDS011;2330;48.158;11.816;2023-03-01T11:08:32;18.73;;;17.08;;
4634;SDS011;2330;48.158;11.816;2023-03-01T11:11:05;18.45;;;16.85;;
4634;SDS011;2330;48.158;11.816;2023-03-01T11:13:32;19.90;;;18.10;;
4634;SDS011;2330;48.158;11.816;2023-03-01T11:16:06;19.08;;;17.38;;
4634;SDS011;2330;48.158;11.816;2023-03-01T11:18:38;21.20;;;19.20;;
4634;SDS011;2330;48.158;11.816;2023-03-01T11:21:13;18.80;;;17.13;;
4634;SDS011;2330;48.158;11.816;2023-03-01T11:23:42;19.10;;;17.40;;
4634;SDS011;2330;48.158;11.816;2023-03-01T11:26:12;19.05;;;17.30;;
4634;SDS011;2330;48.158;11.816;2023-03-01T11:28:40;17.67;;;16.00;;
4634;SDS011;2330;48.158;11.816;2023-03-01T11:31:09;19.03;;;17.10;;
4634;SDS011;2330;48.158;11.816;2023-03-01T11:36:41;20.40;;;18.40;;
4634;SDS011;2330;48.158;11.816;2023-03-01T11:42:14;18.77;;;17.00;;
4634;SDS011;2330;48.158;11.816;2023-03-01T11:44:46;17.97;;;16.37;;
4634;SDS011;2330;48.158;11.816;2023-03-01T11:50:13;19.33;;;17.53;;
4634;SDS011;2330;48.158;11.816;2023-03-01T11:58:50;18.53;;;16.83;;
4634;SDS011;2330;48.158;11.816;2023-03-01T12:06:57;20.10;;;17.20;;
4634;SDS011;2330;48.158;11.816;2023-03-01T12:32:02;19.90;;;18.00;;
4634;SDS011;2330;48.158;11.816;2023-03-01T12:37:31;19.80;;;18.00;;
4634;SDS011;2330;48.158;11.816;2023-03-01T12:40:19;21.07;;;19.07;;
4634;SDS011;2330;48.158;11.816;2023-03-01T12:46:52;19.73;;;17.63;;
4634;SDS011;2330;48.158;11.816;2023-03-01T12:49:29;19.50;;;17.60;;
4634;SDS011;2330;48.158;11.816;2023-03-01T12:52:08;18.27;;;16.67;;
4634;SDS011;2330;48.158;11.816;2023-03-01T12:54:42;19.27;;;17.50;;
4634;SDS011;2330;48.158;11.816;2023-03-01T13:00:15;19.73;;;17.80;;
4634;SDS011;2330;48.158;11.816;2023-03-01T13:08:48;19.23;;;17.37;;
4634;SDS011;2330;48.158;11.816;2023-03-01T13:11:26;20.87;;;18.97;;
4634;SDS011;2330;48.158;11.816;2023-03-01T13:14:33;20.43;;;18.57;;
4634;SDS011;2330;48.158;11.816;2023-03-01T13:16:50;19.90;;;17.97;;
4634;SDS011;2330;48.158;11.816;2023-03-01T13:19:22;21.07;;;19.10;;
4634;SDS011;2330;48.158;11.816;2023-03-01T13:21:51;20.13;;;18.00;;
4634;SDS011;2330;48.158;11.816;2023-03-01T13:24:27;19.87;;;17.97;;
4634;SDS011;2330;48.158;11.816;2023-03-01T13:32:23;20.07;;;18.13;;
4634;SDS011;2330;48.158;11.816;2023-03-01T13:37:43;20.13;;;18.07;;
4634;SDS011;2330;48.158;11.816;2023-03-01T13:42:45;18.97;;;16.97;;
4634;SDS011;2330;48.158;11.816;2023-03-01T13:48:08;22.53;;;20.43;;
4634;SDS011;2330;48.158;11.816;2023-03-01T13:50:50;21.47;;;19.33;;
4634;SDS011;2330;48.158;11.816;2023-03-01T13:53:19;19.53;;;17.70;;
4634;SDS011;2330;48.158;11.816;2023-03-01T13:55:51;20.20;;;18.40;;
4634;SDS011;2330;48.158;11.816;2023-03-01T13:58:25;20.13;;;18.07;;
4634;SDS011;2330;48.158;11.816;2023-03-01T14:01:04;20.47;;;18.43;;
4634;SDS011;2330;48.158;11.816;2023-03-01T14:03:33;18.30;;;16.60;;
4634;SDS011;2330;48.158;11.816;2023-03-01T14:06:09;19.10;;;17.20;;
4634;SDS011;2330;48.158;11.816;2023-03-01T14:08:46;17.60;;;15.90;;
4634;SDS011;2330;48.158;11.816;2023-03-01T14:19:32;18.30;;;16.03;;
4634;SDS011;2330;48.158;11.816;2023-03-01T14:22:20;18.73;;;16.83;;
4634;SDS011;2330;48.158;11.816;2023-03-01T14:24:59;20.53;;;18.37;;
4634;SDS011;2330;48.158;11.816;2023-03-01T14:27:35;18.63;;;16.03;;
4634;SDS011;2330;48.158;11.816;2023-03-01T14:30:16;19.53;;;17.50;;
4634;SDS011;2330;48.158;11.816;2023-03-01T14:32:55;17.77;;;14.93;;
4634;SDS011;2330;48.158;11.816;2023-03-01T14:35:28;17.90;;;16.20;;
4634;SDS011;2330;48.158;11.816;2023-03-01T14:38:00;16.70;;;15.20;;
4634;SDS011;2330;48.158;11.816;2023-03-01T14:40:32;17.20;;;15.50;;
4634;SDS011;2330;48.158;11.816;2023-03-01T14:43:07;17.50;;;15.37;;
4634;SDS011;2330;48.158;11.816;2023-03-01T14:45:37;17.80;;;16.10;;
4634;SDS011;2330;48.158;11.816;2023-03-01T14:48:04;18.17;;;15.53;;
4634;SDS011;2330;48.158;11.816;2023-03-01T14:50:40;17.47;;;15.67;;
4634;SDS011;2330;48.158;11.816;2023-03-01T14:53:18;16.73;;;15.03;;
4634;SDS011;2330;48.158;11.816;2023-03-01T14:55:49;16.60;;;14.93;;
4634;SDS011;2330;48.158;11.816;2023-03-01T14:58:20;17.33;;;15.60;;
4634;SDS011;2330;48.158;11.816;2023-03-01T15:01:03;16.50;;;14.60;;
4634;SDS011;2330;48.158;11.816;2023-03-01T15:03:32;21.97;;;15.73;;
4634;SDS011;2330;48.158;11.816;2023-03-01T15:06:05;16.37;;;14.73;;
4634;SDS011;2330;48.158;11.816;2023-03-01T15:08:33;17.03;;;15.37;;
4634;SDS011;2330;48.158;11.816;2023-03-01T15:11:03;18.77;;;16.93;;
4634;SDS011;2330;48.158;11.816;2023-03-01T15:13:39;16.50;;;15.00;;
4634;SDS011;2330;48.158;11.816;2023-03-01T15:18:51;18.20;;;16.40;;
4634;SDS011;2330;48.158;11.816;2023-03-01T15:21:25;16.70;;;15.20;;
4634;SDS011;2330;48.158;11.816;2023-03-01T15:26:39;15.90;;;14.40;;
4634;SDS011;2330;48.158;11.816;2023-03-01T15:29:15;17.73;;;15.93;;
4634;SDS011;2330;48.158;11.816;2023-03-01T15:31:50;18.60;;;16.57;;
4634;SDS011;2330;48.158;11.816;2023-03-01T15:34:23;16.17;;;14.47;;
4634;SDS011;2330;48.158;11.816;2023-03-01T15:37:04;16.77;;;15.27;;
4634;SDS011;2330;48.158;11.816;2023-03-01T15:42:12;14.90;;;13.50;;
4634;SDS011;2330;48.158;11.816;2023-03-01T15:45:10;20.17;;;18.13;;
4634;SDS011;2330;48.158;11.816;2023-03-01T15:47:48;15.40;;;13.90;;
4634;SDS011;2330;48.158;11.816;2023-03-01T15:50:18;14.27;;;12.80;;
4634;SDS011;2330;48.158;11.816;2023-03-01T15:52:50;15.43;;;13.93;;
4634;SDS011;2330;48.158;11.816;2023-03-01T15:55:22;16.27;;;14.33;;
4634;SDS011;2330;48.158;11.816;2023-03-01T15:57:59;14.83;;;13.33;;
4634;SDS011;2330;48.158;11.816;2023-03-01T16:00:32;14.90;;;13.40;;
4634;SDS011;2330;48.158;11.816;2023-03-01T16:02:59;14.90;;;13.40;;
4634;SDS011;2330;48.158;11.816;2023-03-01T16:05:27;16.20;;;14.50;;
4634;SDS011;2330;48.158;11.816;2023-03-01T16:08:00;15.20;;;13.70;;
4634;SDS011;2330;48.158;11.816;2023-03-01T16:10:28;15.40;;;13.90;;
4634;SDS011;2330;48.158;11.816;2023-03-01T16:12:56;17.40;;;15.70;;
4634;SDS011;2330;48.158;11.816;2023-03-01T16:15:24;14.97;;;13.47;;
4634;SDS011;2330;48.158;11.816;2023-03-01T16:17:58;14.63;;;13.23;;
4634;SDS011;2330;48.158;11.816;2023-03-01T16:20:25;15.10;;;13.60;;
4634;SDS011;2330;48.158;11.816;2023-03-01T16:23:05;15.00;;;13.50;;
4634;SDS011;2330;48.158;11.816;2023-03-01T16:25:34;19.87;;;14.27;;
4634;SDS011;2330;48.158;11.816;2023-03-01T16:28:01;18.83;;;15.00;;
4634;SDS011;2330;48.158;11.816;2023-03-01T16:30:31;20.07;;;16.83;;
4634;SDS011;2330;48.158;11.816;2023-03-01T16:32:58;21.60;;;17.03;;
4634;SDS011;2330;48.158;11.816;2023-03-01T16:35:25;26.17;;;17.73;;
4634;SDS011;2330;48.158;11.816;2023-03-01T16:37:51;18.13;;;15.80;;
4634;SDS011;2330;48.158;11.816;2023-03-01T16:40:25;17.93;;;15.97;;
4634;SDS011;2330;48.158;11.816;2023-03-01T16:42:54;28.47;;;23.20;;
4634;SDS011;2330;48.158;11.816;2023-03-01T16:45:26;20.97;;;18.60;;
4634;SDS011;2330;48.158;11.816;2023-03-01T16:48:02;19.80;;;17.70;;
4634;SDS011;2330;48.158;11.816;2023-03-01T16:50:29;20.50;;;17.63;;
4634;SDS011;2330;48.158;11.816;2023-03-01T16:52:56;17.77;;;15.77;;
4634;SDS011;2330;48.158;11.816;2023-03-01T16:55:23;16.40;;;14.80;;
4634;SDS011;2330;48.158;11.816;2023-03-01T16:57:50;15.97;;;14.37;;
4634;SDS011;2330;48.158;11.816;2023-03-01T17:00:17;16.83;;;14.27;;
4634;SDS011;2330;48.158;11.816;2023-03-01T17:02:44;13.30;;;12.00;;
4634;SDS011;2330;48.158;11.816;2023-03-01T17:05:11;12.13;;;10.93;;
4634;SDS011;2330;48.158;11.816;2023-03-01T17:07:39;12.00;;;10.90;;